Time;durP1;ratioP1;P1;durP2;ratioP2;P2;SDS_P1;SDS_P2;PMS_P1;PMS_P2;Temp;Humidity;BMP_temperature;BMP_pressure;BME280_temperature;BME280_humidity;BME280_pressure;Samples;Min_cycle;Max_cycle;Signal;HPM_P1;HPM_P2
2020/12/15 03:47:13;;;;;;;29.25;14.50;;;3.30;99.90;;;;;;5422920;23;89571;-77
2020/12/15 03:49:39;;;;;;;34.45;16.63;;;3.30;99.90;;;;;;4905629;28;86777;-80
2020/12/15 03:52:05;;;;;;;30.55;15.13;;;;;;;;;;4910025;28;87069;-77
2020/12/15 03:54:30;;;;;;;34.38;16.52;;;3.30;99.90;;;;;;4910547;28;87047;-79
2020/12/15 03:56:56;;;;;;;34.85;17.83;;;3.30;99.90;;;;;;4910136;28;86472;-78
2020/12/15 03:59:22;;;;;;;34.03;15.05;;;3.30;99.90;;;;;;4908319;28;87184;-80
2020/12/15 04:01:47;;;;;;;32.00;15.40;;;3.40;99.90;;;;;;4904889;28;86562;-80
2020/12/15 04:04:13;;;;;;;32.85;16.67;;;3.30;99.90;;;;;;4915275;28;86109;-78
2020/12/15 04:06:38;;;;;;;33.38;15.23;;;3.40;99.90;;;;;;4916217;28;86844;-77
2020/12/15 04:09:04;;;;;;;36.85;17.55;;;3.20;99.90;;;;;;4912502;28;87201;-79
2020/12/15 04:11:30;;;;;;;37.80;17.20;;;3.50;99.90;;;;;;4911778;28;88399;-82
2020/12/15 04:13:55;;;;;;;34.95;15.80;;;3.60;99.90;;;;;;4913016;28;86935;-79
2020/12/15 04:16:21;;;;;;;34.15;17.70;;;3.80;99.90;;;;;;4897006;28;86740;-80
2020/12/15 04:18:47;;;;;;;38.75;16.85;;;3.50;99.90;;;;;;4908306;28;86954;-81
2020/12/15 04:21:13;;;;;;;41.30;16.85;;;3.70;99.90;;;;;;4904613;28;88026;-79
2020/12/15 04:23:38;;;;;;;38.72;18.60;;;3.80;99.90;;;;;;4896770;28;87489;-80
2020/12/15 04:26:04;;;;;;;46.47;19.75;;;3.80;99.90;;;;;;4908478;28;86966;-79
2020/12/15 04:28:30;;;;;;;40.45;18.65;;;3.90;99.90;;;;;;4905675;28;86023;-78
2020/12/15 04:30:55;;;;;;;34.92;16.25;;;4.00;99.90;;;;;;4904036;28;88568;-77
2020/12/15 04:33:21;;;;;;;40.65;17.50;;;4.20;99.90;;;;;;4904133;28;86965;-79
2020/12/15 04:35:47;;;;;;;39.55;18.83;;;4.30;99.90;;;;;;4897463;28;87873;-80
2020/12/15 04:38:13;;;;;;;41.05;19.00;;;4.40;99.90;;;;;;4900489;28;86598;-82
2020/12/15 04:40:39;;;;;;;35.42;19.00;;;4.50;99.90;;;;;;4894166;28;86654;-82
2020/12/15 04:43:07;;;;;;;36.67;17.15;;;4.50;99.90;;;;;;4911100;28;87164;-82
2020/12/15 04:45:35;;;;;;;34.42;17.88;;;4.60;99.90;;;;;;4914393;28;86541;-80
2020/12/15 04:48:07;;;;;;;34.08;16.75;;;4.70;99.90;;;;;;4920844;28;86752;-78
2020/12/15 04:50:36;;;;;;;35.30;17.30;;;4.90;99.90;;;;;;4923138;28;87106;-79
2020/12/15 04:53:10;;;;;;;29.42;15.88;;;4.80;99.90;;;;;;4928965;28;88083;-80
2020/12/15 04:55:37;;;;;;;30.77;16.70;;;4.70;99.90;;;;;;4910530;28;86911;-80
2020/12/15 04:58:04;;;;;;;29.73;13.63;;;4.80;99.90;;;;;;4934161;28;87465;-80
2020/12/15 05:00:30;;;;;;;28.40;15.13;;;4.60;99.90;;;;;;4913581;28;88711;-80
2020/12/15 05:02:57;;;;;;;28.90;16.48;;;;;;;;;;4927540;28;88619;-83
2020/12/15 05:05:25;;;;;;;28.63;13.70;;;4.90;99.90;;;;;;4938961;28;86093;-80
2020/12/15 05:07:51;;;;;;;25.63;13.73;;;4.80;99.90;;;;;;4943326;28;86675;-79
2020/12/15 05:10:19;;;;;;;24.40;15.07;;;4.70;99.90;;;;;;4930459;28;86849;-81
2020/12/15 05:12:46;;;;;;;30.30;15.02;;;4.80;99.90;;;;;;4917742;28;87809;-81
2020/12/15 05:15:17;;;;;;;28.95;15.52;;;4.80;99.90;;;;;;4911712;28;87175;-80
2020/12/15 05:17:43;;;;;;;29.05;16.00;;;4.80;99.90;;;;;;4909195;28;86070;-81
2020/12/15 05:20:10;;;;;;;30.88;16.35;;;4.90;99.90;;;;;;4911986;28;87065;-81
2020/12/15 05:22:42;;;;;;;26.23;14.20;;;4.90;99.90;;;;;;4917951;28;86618;-81
2020/12/15 05:25:20;;;;;;;28.45;14.82;;;5.00;99.90;;;;;;4910372;28;88074;-81
2020/12/15 05:27:45;;;;;;;27.40;14.90;;;5.00;99.90;;;;;;4916137;28;86254;-81
2020/12/15 05:30:11;;;;;;;26.27;15.57;;;5.10;99.90;;;;;;4916397;28;87227;-80
2020/12/15 05:32:56;;;;;;;31.50;15.07;;;5.10;99.90;;;;;;4891155;28;87513;-82
2020/12/15 05:35:30;;;;;;;28.10;15.27;;;5.10;99.90;;;;;;4925729;28;86991;-81
2020/12/15 05:38:02;;;;;;;28.60;15.15;;;5.20;99.90;;;;;;4918935;28;86439;-81
2020/12/15 05:40:27;;;;;;;26.65;13.80;;;5.30;99.90;;;;;;4910536;28;88678;-81
2020/12/15 05:42:54;;;;;;;27.20;15.05;;;5.80;99.90;;;;;;4928905;28;86970;-81
2020/12/15 05:45:21;;;;;;;30.00;17.45;;;5.40;99.90;;;;;;4911598;28;86978;-82
2020/12/15 05:47:48;;;;;;;26.88;15.02;;;5.30;99.90;;;;;;4896586;28;87109;-81
2020/12/15 05:50:22;;;;;;;31.35;14.45;;;5.50;99.90;;;;;;4891180;28;88699;-84
2020/12/15 05:52:56;;;;;;;25.95;14.80;;;5.30;99.90;;;;;;4907959;28;87159;-81
2020/12/15 05:55:22;;;;;;;28.63;13.63;;;5.30;99.90;;;;;;4897430;28;87088;-82
2020/12/15 05:57:47;;;;;;;23.25;13.43;;;5.30;99.90;;;;;;4892840;28;87281;-82
2020/12/15 06:00:13;;;;;;;24.15;12.68;;;5.30;99.90;;;;;;4909393;28;87039;-82
2020/12/15 06:02:40;;;;;;;29.33;15.65;;;5.30;99.90;;;;;;4903195;28;87000;-82
2020/12/15 06:05:07;;;;;;;27.63;15.00;;;5.20;99.90;;;;;;4900175;28;86910;-82
2020/12/15 06:07:33;;;;;;;27.38;15.05;;;5.20;99.90;;;;;;4909989;28;86258;-81
2020/12/15 06:09:59;;;;;;;27.25;14.32;;;5.10;99.90;;;;;;4899029;28;86979;-81
2020/12/15 06:12:25;;;;;;;24.52;13.30;;;5.10;99.90;;;;;;4904514;28;86771;-82
2020/12/15 06:14:51;;;;;;;25.00;14.40;;;5.00;99.90;;;;;;4901771;28;87888;-82
2020/12/15 06:17:21;;;;;;;28.10;14.15;;;5.00;99.90;;;;;;4897206;28;86972;-82
2020/12/15 06:19:54;;;;;;;24.13;13.02;;;4.80;99.90;;;;;;4905098;28;87287;-82
2020/12/15 06:22:22;;;;;;;22.38;12.80;;;4.70;99.90;;;;;;4904145;28;87065;-82
2020/12/15 06:24:58;;;;;;;24.27;13.73;;;4.60;99.90;;;;;;4907625;28;86270;-82
2020/12/15 06:27:35;;;;;;;30.73;15.30;;;4.50;99.90;;;;;;4908161;28;86961;-82
2020/12/15 06:30:04;;;;;;;28.45;14.75;;;4.40;99.90;;;;;;4904763;28;87509;-82
2020/12/15 06:32:30;;;;;;;30.42;14.75;;;4.30;99.90;;;;;;4908707;28;86896;-82
2020/12/15 06:34:56;;;;;;;29.38;13.77;;;4.30;99.90;;;;;;4906873;28;86222;-82
2020/12/15 06:37:24;;;;;;;29.25;14.32;;;4.20;99.90;;;;;;4903625;28;87028;-80
2020/12/15 06:40:01;;;;;;;27.67;13.77;;;4.20;99.90;;;;;;4902883;28;88000;-82
2020/12/15 06:42:27;;;;;;;26.23;12.60;;;4.20;99.90;;;;;;4904966;28;87824;-80
2020/12/15 06:45:07;;;;;;;26.05;14.48;;;4.10;99.90;;;;;;4908067;28;86869;-81
2020/12/15 06:47:33;;;;;;;26.63;13.63;;;4.10;99.90;;;;;;4917250;28;87141;-78
2020/12/15 06:50:19;;;;;;;28.13;13.18;;;4.00;99.90;;;;;;4927215;28;87715;-80
2020/12/15 06:52:47;;;;;;;28.08;14.02;;;3.80;99.90;;;;;;4925218;28;88043;-80
2020/12/15 06:55:13;;;;;;;30.02;12.70;;;3.70;99.90;;;;;;4932627;28;86713;-81
2020/12/15 06:57:40;;;;;;;29.38;13.90;;;3.60;99.90;;;;;;4927746;28;86146;-81
2020/12/15 07:00:10;;;;;;;29.05;15.02;;;3.60;99.90;;;;;;4932986;28;87278;-83
2020/12/15 07:02:37;;;;;;;28.73;14.68;;;3.60;99.90;;;;;;4924416;28;89208;-83
2020/12/15 07:05:33;;;;;;;30.92;16.90;;;3.50;99.90;;;;;;4932862;28;87907;-83
2020/12/15 07:08:08;;;;;;;28.90;15.52;;;3.60;99.90;;;;;;4912075;28;86730;-82
2020/12/15 07:10:38;;;;;;;28.25;15.45;;;3.60;99.90;;;;;;4932799;28;86907;-83
2020/12/15 07:13:04;;;;;;;29.75;15.05;;;3.60;99.90;;;;;;4937508;28;87504;-80
2020/12/15 07:15:30;;;;;;;32.22;17.10;;;;;;;;;;4926660;28;86456;-81
2020/12/15 07:17:56;;;;;;;29.35;16.08;;;3.80;99.90;;;;;;4929822;28;86383;-82
2020/12/15 07:20:23;;;;;;;28.45;14.88;;;3.70;99.90;;;;;;4926266;28;87113;-81
2020/12/15 07:22:49;;;;;;;26.25;15.15;;;3.80;99.90;;;;;;4922204;28;90864;-81
2020/12/15 07:25:16;;;;;;;30.40;16.05;;;3.70;99.90;;;;;;4928197;28;86749;-81
2020/12/15 07:27:43;;;;;;;30.58;15.77;;;3.90;99.90;;;;;;4908080;28;87196;-81
2020/12/15 07:30:17;;;;;;;28.77;15.07;;;4.10;99.90;;;;;;4929420;28;89307;-82
2020/12/15 07:32:44;;;;;;;29.10;14.77;;;4.10;99.90;;;;;;4925606;28;87202;-82
2020/12/15 07:35:18;;;;;;;28.88;16.33;;;4.10;99.90;;;;;;4927827;28;86847;-81
2020/12/15 07:37:44;;;;;;;27.17;13.90;;;4.10;99.90;;;;;;4918075;28;86588;-82
2020/12/15 07:40:14;;;;;;;39.13;15.93;;;4.10;99.90;;;;;;4926422;28;88238;-81
2020/12/15 07:42:41;;;;;;;34.93;16.77;;;4.30;99.90;;;;;;4924574;28;87029;-81
2020/12/15 07:45:11;;;;;;;37.42;16.23;;;4.50;99.90;;;;;;4923604;28;86894;-81
2020/12/15 07:47:43;;;;;;;33.38;17.15;;;4.60;99.90;;;;;;4926924;28;86219;-78
2020/12/15 07:50:15;;;;;;;31.65;16.63;;;4.50;99.90;;;;;;4928030;28;86590;-81
2020/12/15 07:52:41;;;;;;;33.65;15.57;;;4.70;99.90;;;;;;4926544;28;86798;-81
2020/12/15 07:55:14;;;;;;;35.67;17.05;;;5.00;99.90;;;;;;4918683;28;87814;-81
2020/12/15 07:57:41;;;;;;;36.10;16.35;;;4.70;99.90;;;;;;4924582;28;87567;-80
2020/12/15 08:00:16;;;;;;;33.80;15.77;;;4.90;99.90;;;;;;4921061;28;86983;-79
2020/12/15 08:02:43;;;;;;;32.53;16.80;;;5.50;99.90;;;;;;4919569;28;87058;-79
2020/12/15 08:05:22;;;;;;;32.10;15.98;;;5.10;99.90;;;;;;4921411;28;86942;-80
2020/12/15 08:07:51;;;;;;;34.88;16.92;;;5.20;99.90;;;;;;4922000;28;87002;-80
2020/12/15 08:10:25;;;;;;;29.08;15.60;;;5.40;99.90;;;;;;4908892;28;90078;-80
2020/12/15 08:12:56;;;;;;;31.50;15.60;;;5.60;99.90;;;;;;4932483;28;86438;-80
2020/12/15 08:15:22;;;;;;;29.83;16.45;;;5.80;99.90;;;;;;4931984;28;86924;-81
2020/12/15 08:17:50;;;;;;;29.75;15.85;;;6.00;99.90;;;;;;4911854;28;86377;-81
2020/12/15 08:20:17;;;;;;;30.83;14.75;;;6.00;99.90;;;;;;4925345;28;87966;-79
2020/12/15 08:22:45;;;;;;;34.13;16.50;;;6.00;99.90;;;;;;4928668;28;87791;-81
2020/12/15 08:25:15;;;;;;;30.13;15.48;;;6.00;99.90;;;;;;4910401;28;87205;-80
2020/12/15 08:27:41;;;;;;;27.38;15.75;;;6.10;99.90;;;;;;4923325;28;86976;-81
2020/12/15 08:30:18;;;;;;;30.38;16.10;;;6.10;99.90;;;;;;4924523;28;86855;-81
2020/12/15 08:32:48;;;;;;;31.27;16.73;;;6.20;99.90;;;;;;4928704;28;88020;-81
2020/12/15 08:35:21;;;;;;;28.33;15.63;;;6.20;99.90;;;;;;4927268;28;86828;-81
2020/12/15 08:37:52;;;;;;;28.33;16.08;;;6.40;99.90;;;;;;4922681;28;86197;-80
2020/12/15 08:40:18;;;;;;;28.60;17.03;;;6.40;99.90;;;;;;4917515;28;87570;-81
2020/12/15 08:42:44;;;;;;;26.40;14.43;;;6.40;99.90;;;;;;4925411;28;87073;-80
2020/12/15 08:45:17;;;;;;;32.20;17.45;;;6.50;99.90;;;;;;4923956;28;87999;-81
2020/12/15 08:47:49;;;;;;;32.40;16.83;;;6.50;99.90;;;;;;4920807;28;86900;-81
2020/12/15 08:50:16;;;;;;;29.60;16.83;;;6.50;99.90;;;;;;4917644;28;87160;-81
2020/12/15 08:52:43;;;;;;;33.95;16.58;;;6.40;99.90;;;;;;4909300;28;87028;-81
2020/12/15 08:55:09;;;;;;;33.97;16.98;;;6.50;99.90;;;;;;4907964;28;87108;-81
2020/12/15 08:57:35;;;;;;;37.88;17.98;;;6.50;99.90;;;;;;4929009;28;86817;-81
2020/12/15 09:00:15;;;;;;;40.65;18.70;;;6.50;99.90;;;;;;4921704;28;87260;-81
2020/12/15 09:02:42;;;;;;;36.13;17.42;;;6.50;99.90;;;;;;4928311;28;86113;-81
2020/12/15 09:05:12;;;;;;;36.75;18.55;;;6.50;99.90;;;;;;4930255;28;87269;-81
2020/12/15 09:07:39;;;;;;;34.75;18.08;;;6.60;99.90;;;;;;4938249;28;86296;-81
2020/12/15 09:10:17;;;;;;;40.55;21.25;;;7.00;99.90;;;;;;4923530;28;91657;-80
2020/12/15 09:12:47;;;;;;;38.03;20.40;;;7.20;99.90;;;;;;4929946;28;88578;-81
2020/12/15 09:15:14;;;;;;;36.97;19.27;;;7.00;99.90;;;;;;4937844;28;86952;-79
2020/12/15 09:17:40;;;;;;;38.97;19.60;;;7.00;99.90;;;;;;4937126;28;86946;-80
2020/12/15 09:20:08;;;;;;;40.75;19.85;;;7.00;99.90;;;;;;4938179;28;87262;-81
2020/12/15 09:22:38;;;;;;;41.65;20.70;;;7.00;99.90;;;;;;4926638;28;86980;-81
2020/12/15 09:25:24;;;;;;;37.40;20.40;;;7.10;99.90;;;;;;4913974;28;86934;-81
2020/12/15 09:27:50;;;;;;;38.10;19.27;;;7.00;99.90;;;;;;4924479;28;86278;-81
2020/12/15 09:30:18;;;;;;;38.70;18.80;;;7.00;99.90;;;;;;4923647;28;88348;-81
2020/12/15 09:32:45;;;;;;;36.90;18.98;;;7.10;99.90;;;;;;4923148;28;87543;-81
2020/12/15 09:35:12;;;;;;;37.55;19.52;;;7.30;99.90;;;;;;4925936;28;88417;-80
2020/12/15 09:37:39;;;;;;;36.00;18.55;;;7.40;99.90;;;;;;4906954;28;87021;-81
2020/12/15 09:40:08;;;;;;;35.10;17.65;;;7.50;99.90;;;;;;4924799;28;87441;-81
2020/12/15 09:42:35;;;;;;;33.95;19.02;;;7.60;99.90;;;;;;4925367;28;88296;-81
2020/12/15 09:45:02;;;;;;;31.27;18.08;;;7.60;99.90;;;;;;4926007;28;86945;-81
2020/12/15 09:47:27;;;;;;;33.20;18.95;;;7.60;99.90;;;;;;4920336;28;88327;-81
2020/12/15 09:49:53;;;;;;;31.33;17.27;;;7.70;99.90;;;;;;4910363;28;86937;-79
2020/12/15 09:52:19;;;;;;;31.02;16.95;;;7.70;99.90;;;;;;4919521;28;88126;-81
2020/12/15 09:54:44;;;;;;;28.83;17.58;;;7.70;99.90;;;;;;4918625;28;87292;-80
2020/12/15 09:57:10;;;;;;;30.05;18.05;;;7.70;99.90;;;;;;4917767;28;89323;-81
2020/12/15 09:59:36;;;;;;;31.65;17.77;;;7.70;99.90;;;;;;4930878;28;88250;-80
2020/12/15 10:02:02;;;;;;;30.02;17.10;;;7.70;99.90;;;;;;4925170;28;88454;-80
2020/12/15 10:04:30;;;;;;;30.67;17.35;;;7.80;99.90;;;;;;4921710;28;87171;-80
2020/12/15 10:06:56;;;;;;;31.42;19.42;;;7.80;99.90;;;;;;4921544;28;87016;-81
2020/12/15 10:09:23;;;;;;;28.48;15.52;;;7.90;99.90;;;;;;4918300;28;87674;-81
2020/12/15 10:11:49;;;;;;;24.05;14.70;;;7.90;99.90;;;;;;4902203;28;88241;-80
2020/12/15 10:14:15;;;;;;;23.38;14.45;;;7.80;99.90;;;;;;4922400;28;86902;-81
2020/12/15 10:16:41;;;;;;;25.77;15.48;;;7.80;99.90;;;;;;4934691;28;86002;-80
2020/12/15 10:19:08;;;;;;;25.98;14.80;;;7.80;99.90;;;;;;4923848;28;87427;-81
2020/12/15 10:21:35;;;;;;;27.20;14.52;;;7.80;99.90;;;;;;4925672;28;87071;-82
2020/12/15 10:24:02;;;;;;;32.28;16.13;;;7.80;99.90;;;;;;4921690;28;87850;-80
2020/12/15 10:26:28;;;;;;;26.15;14.85;;;7.90;99.90;;;;;;4906125;28;87063;-83
2020/12/15 10:28:54;;;;;;;26.02;14.50;;;7.90;99.90;;;;;;4925963;28;87817;-81
2020/12/15 10:31:20;;;;;;;25.15;15.30;;;7.90;99.90;;;;;;4919429;28;86999;-81
2020/12/15 10:33:46;;;;;;;26.15;15.45;;;8.00;99.90;;;;;;4910744;28;86906;-82
2020/12/15 10:36:13;;;;;;;26.73;16.27;;;8.00;99.90;;;;;;4923282;28;86823;-81
2020/12/15 10:38:39;;;;;;;28.65;18.02;;;8.10;99.90;;;;;;4921826;28;87252;-82
2020/12/15 10:41:07;;;;;;;28.45;16.05;;;8.10;99.90;;;;;;4916781;28;87820;-82
2020/12/15 10:43:33;;;;;;;28.90;16.50;;;8.10;99.90;;;;;;4917785;28;87155;-82
2020/12/15 10:45:59;;;;;;;31.02;17.00;;;8.40;99.90;;;;;;4923126;28;87030;-83
2020/12/15 10:48:25;;;;;;;27.83;15.73;;;8.20;99.90;;;;;;4916714;28;88820;-81
2020/12/15 10:50:51;;;;;;;26.33;15.82;;;8.30;99.90;;;;;;4919375;28;87328;-81
2020/12/15 10:53:18;;;;;;;28.00;16.52;;;8.20;99.90;;;;;;4917050;28;86837;-81
2020/12/15 10:55:51;;;;;;;27.67;16.33;;;8.20;99.90;;;;;;4921299;28;87402;-81
2020/12/15 10:58:17;;;;;;;25.00;15.48;;;8.40;99.90;;;;;;4919076;28;86949;-81
2020/12/15 11:00:43;;;;;;;26.38;15.50;;;8.20;99.90;;;;;;4912026;28;87096;-80
2020/12/15 11:03:10;;;;;;;23.92;14.98;;;;;;;;;;4915068;28;87066;-89
2020/12/15 11:05:35;;;;;;;27.20;16.05;;;8.80;99.90;;;;;;4925826;28;86254;-86
2020/12/15 11:08:01;;;;;;;24.98;13.80;;;8.70;99.90;;;;;;4925683;28;89049;-88
2020/12/15 11:10:27;;;;;;;27.42;15.35;;;8.80;98.80;;;;;;4922809;28;86873;-86
2020/12/15 11:12:53;;;;;;;25.15;14.45;;;9.10;98.80;;;;;;4896241;28;88112;-79
2020/12/15 11:15:19;;;;;;;26.50;15.02;;;9.30;97.40;;;;;;4919699;28;86770;-80
2020/12/15 11:17:45;;;;;;;23.40;13.75;;;9.50;97.00;;;;;;4923795;28;88102;-84
2020/12/15 11:20:10;;;;;;;27.30;15.50;;;9.70;95.20;;;;;;4920249;28;87116;-82
2020/12/15 11:22:36;;;;;;;27.08;16.13;;;9.20;93.80;;;;;;4917688;28;86812;-82
2020/12/15 11:25:02;;;;;;;24.95;14.82;;;9.70;94.20;;;;;;4928950;28;86888;-82
2020/12/15 11:27:28;;;;;;;25.92;16.65;;;9.80;93.70;;;;;;4926985;28;86954;-81
2020/12/15 11:29:54;;;;;;;27.02;16.45;;;9.80;93.30;;;;;;4910819;28;87186;-82
2020/12/15 11:32:20;;;;;;;24.00;15.55;;;9.90;93.20;;;;;;4922800;28;86547;-80
2020/12/15 11:34:46;;;;;;;27.40;17.40;;;9.70;92.20;;;;;;4906870;28;86978;-78
2020/12/15 11:37:12;;;;;;;29.40;17.67;;;9.50;92.90;;;;;;4915655;28;88225;-76
2020/12/15 11:39:41;;;;;;;32.17;18.05;;;9.40;92.80;;;;;;4919719;28;87461;-79
2020/12/15 11:42:08;;;;;;;30.23;16.42;;;9.30;92.90;;;;;;4922199;28;87261;-79
2020/12/15 11:44:34;;;;;;;34.08;18.50;;;9.10;93.50;;;;;;4922183;28;87034;-77
2020/12/15 11:47:00;;;;;;;33.42;18.63;;;9.10;94.00;;;;;;4923769;28;86847;-78
2020/12/15 11:49:26;;;;;;;32.83;16.83;;;9.20;94.20;;;;;;4924898;28;87148;-77
2020/12/15 11:51:56;;;;;;;36.42;18.70;;;9.40;93.80;;;;;;4922925;28;87088;-78
2020/12/15 11:54:22;;;;;;;34.67;18.17;;;9.50;92.80;;;;;;4925977;28;86027;-78
2020/12/15 11:56:50;;;;;;;32.65;18.73;;;9.70;92.70;;;;;;4922334;28;87204;-76
2020/12/15 11:59:16;;;;;;;27.58;17.52;;;;;;;;;;4922971;28;87041;-77
2020/12/15 12:01:42;;;;;;;25.73;16.13;;;10.60;91.40;;;;;;4922416;28;88005;-77
2020/12/15 12:04:08;;;;;;;31.30;18.55;;;12.00;88.70;;;;;;4922139;28;87016;-78
2020/12/15 12:06:34;;;;;;;24.55;16.73;;;13.10;82.60;;;;;;4917826;28;87563;-78
2020/12/15 12:09:02;;;;;;;23.70;14.70;;;14.20;77.80;;;;;;4922850;28;87996;-80
2020/12/15 12:11:28;;;;;;;25.60;16.35;;;15.10;71.10;;;;;;4906695;28;86830;-80
2020/12/15 12:13:54;;;;;;;24.27;14.85;;;15.50;69.00;;;;;;4921812;28;86812;-78
2020/12/15 12:16:20;;;;;;;26.27;17.30;;;15.50;67.80;;;;;;4918985;28;87147;-78
2020/12/15 12:18:45;;;;;;;25.02;16.60;;;15.20;66.70;;;;;;4925534;28;87012;-79
2020/12/15 12:21:11;;;;;;;21.60;14.95;;;14.80;67.60;;;;;;4922113;28;87009;-79
2020/12/15 12:23:39;;;;;;;22.73;14.98;;;14.40;68.30;;;;;;4925867;28;87091;-80
2020/12/15 12:26:05;;;;;;;20.73;14.40;;;13.90;69.00;;;;;;4924679;28;88191;-81
2020/12/15 12:28:32;;;;;;;23.35;16.38;;;13.40;70.50;;;;;;4924697;28;87220;-79
2020/12/15 12:30:58;;;;;;;20.83;15.40;;;13.10;71.70;;;;;;4922374;28;87309;-79
2020/12/15 12:33:24;;;;;;;27.58;16.90;;;12.60;72.60;;;;;;4924405;28;86979;-78
2020/12/15 12:35:52;;;;;;;25.15;16.55;;;12.20;74.30;;;;;;4925118;28;89157;-80
2020/12/15 12:38:19;;;;;;;25.27;17.23;;;11.90;75.00;;;;;;4926404;28;87183;-79
2020/12/15 12:40:45;;;;;;;28.23;17.27;;;11.60;76.30;;;;;;4924505;28;87319;-78
2020/12/15 12:43:10;;;;;;;25.25;15.93;;;11.40;77.30;;;;;;4925246;28;86666;-80
2020/12/15 12:45:40;;;;;;;23.52;15.82;;;11.40;77.80;;;;;;4926155;28;87250;-80
2020/12/15 12:48:10;;;;;;;28.35;18.00;;;11.40;78.40;;;;;;4924938;28;87760;-80
2020/12/15 12:50:36;;;;;;;25.35;16.52;;;11.30;78.70;;;;;;4927295;28;87604;-79
2020/12/15 12:53:02;;;;;;;28.27;17.45;;;11.20;78.50;;;;;;4926853;28;87422;-79
2020/12/15 12:55:27;;;;;;;28.83;18.02;;;11.10;78.80;;;;;;4930749;28;87239;-80
2020/12/15 12:57:54;;;;;;;29.27;17.80;;;10.80;80.00;;;;;;4919205;28;87661;-78
2020/12/15 13:00:21;;;;;;;29.08;16.63;;;10.60;81.40;;;;;;4925129;28;86932;-79
2020/12/15 13:02:47;;;;;;;26.48;17.05;;;10.30;82.60;;;;;;4915586;28;87141;-80
2020/12/15 13:05:13;;;;;;;26.85;16.15;;;10.20;83.70;;;;;;4922522;28;87098;-80
2020/12/15 13:07:38;;;;;;;27.30;16.77;;;10.00;84.80;;;;;;4916776;28;86700;-78
2020/12/15 13:10:04;;;;;;;25.90;16.48;;;10.00;85.20;;;;;;4921448;28;87038;-79
2020/12/15 13:12:30;;;;;;;26.35;15.77;;;9.90;86.80;;;;;;4918069;28;86935;-79
2020/12/15 13:14:58;;;;;;;29.90;17.55;;;9.60;88.70;;;;;;4923977;28;89574;-79
2020/12/15 13:17:24;;;;;;;26.42;17.13;;;9.50;90.00;;;;;;4934433;28;87845;-78
2020/12/15 13:19:51;;;;;;;26.00;16.05;;;9.50;91.20;;;;;;4933375;28;86489;-80
2020/12/15 13:22:16;;;;;;;26.45;15.95;;;9.80;90.90;;;;;;4916866;28;87676;-78
2020/12/15 13:24:42;;;;;;;77.13;31.85;;;10.20;90.50;;;;;;4925934;28;87197;-81
2020/12/15 13:27:08;;;;;;;33.92;19.75;;;10.50;89.40;;;;;;4937648;28;86259;-79
2020/12/15 13:29:33;;;;;;;40.95;21.10;;;11.70;84.40;;;;;;4943116;28;87125;-77
2020/12/15 13:31:59;;;;;;;32.65;19.02;;;11.80;85.60;;;;;;4911084;28;85853;-77
2020/12/15 13:34:25;;;;;;;25.50;15.95;;;12.30;81.60;;;;;;4915694;28;86989;-77
2020/12/15 13:36:50;;;;;;;36.88;18.90;;;12.30;77.50;;;;;;4922892;28;88367;-77
2020/12/15 13:39:16;;;;;;;50.92;25.30;;;12.20;78.90;;;;;;4922018;28;87891;-77
2020/12/15 13:41:42;;;;;;;37.45;19.55;;;12.20;78.80;;;;;;4920587;28;87190;-76
2020/12/15 13:44:07;;;;;;;37.15;19.90;;;12.10;78.90;;;;;;4921307;28;87386;-78
2020/12/15 13:46:33;;;;;;;27.83;17.75;;;11.90;79.40;;;;;;4912270;28;87429;-77
2020/12/15 13:49:02;;;;;;;29.27;17.88;;;11.80;80.20;;;;;;4910669;28;86888;-77
2020/12/15 13:51:31;;;;;;;34.90;18.73;;;11.40;80.90;;;;;;4920634;28;87196;-78
2020/12/15 13:53:57;;;;;;;31.35;19.15;;;11.20;81.90;;;;;;4923551;28;86882;-76
2020/12/15 13:56:22;;;;;;;30.65;19.55;;;10.80;83.40;;;;;;4922870;28;86324;-77
2020/12/15 13:58:48;;;;;;;31.20;18.90;;;10.70;84.00;;;;;;4920956;28;87055;-78
2020/12/15 14:01:14;;;;;;;30.95;18.15;;;10.50;84.40;;;;;;4911842;28;87441;-76
2020/12/15 14:03:40;;;;;;;27.63;17.08;;;10.30;85.40;;;;;;4917286;28;87728;-78
2020/12/15 14:06:06;;;;;;;26.92;17.75;;;10.10;86.40;;;;;;4914837;28;87747;-78
2020/12/15 14:08:31;;;;;;;29.80;17.35;;;9.90;87.70;;;;;;4905783;28;88249;-78
2020/12/15 14:10:57;;;;;;;27.63;17.35;;;9.50;90.10;;;;;;4916187;28;87221;-75
2020/12/15 14:13:23;;;;;;;28.83;17.40;;;9.30;90.70;;;;;;4920310;28;87341;-77
2020/12/15 14:15:48;;;;;;;26.80;16.77;;;9.20;91.20;;;;;;4922866;28;87147;-77
2020/12/15 14:18:14;;;;;;;28.33;17.55;;;9.10;91.60;;;;;;4921275;28;87814;-78
2020/12/15 14:20:40;;;;;;;27.85;16.27;;;9.00;92.20;;;;;;4920013;28;86046;-78
2020/12/15 14:23:08;;;;;;;29.25;16.98;;;8.90;92.80;;;;;;4919051;28;87636;-76
2020/12/15 14:25:33;;;;;;;31.23;17.48;;;9.10;93.10;;;;;;4913974;28;88377;-77
2020/12/15 14:27:59;;;;;;;26.95;14.95;;;9.30;93.10;;;;;;4920725;28;88008;-76
2020/12/15 14:30:25;;;;;;;29.92;17.90;;;9.40;92.60;;;;;;4924181;28;87090;-77
2020/12/15 14:32:50;;;;;;;27.77;17.30;;;9.50;92.20;;;;;;4922800;28;87105;-78
2020/12/15 14:35:16;;;;;;;26.40;15.75;;;9.50;92.10;;;;;;4907380;28;87141;-78
2020/12/15 14:37:42;;;;;;;24.60;15.85;;;9.30;92.20;;;;;;4915575;28;86980;-78
2020/12/15 14:40:08;;;;;;;28.20;16.98;;;9.20;92.50;;;;;;4923046;28;86922;-79
2020/12/15 14:42:33;;;;;;;23.70;15.55;;;9.10;93.00;;;;;;4925322;28;87288;-79
2020/12/15 14:44:59;;;;;;;27.92;16.15;;;9.00;93.30;;;;;;4917538;28;87051;-77
2020/12/15 14:47:25;;;;;;;23.77;15.52;;;8.80;93.80;;;;;;4915442;28;87424;-78
2020/12/15 14:49:51;;;;;;;23.33;15.48;;;8.70;94.10;;;;;;4922782;28;87014;-79
2020/12/15 14:52:18;;;;;;;24.83;14.88;;;8.50;94.90;;;;;;4913948;28;88218;-78
2020/12/15 14:54:44;;;;;;;27.83;16.92;;;8.40;95.50;;;;;;4913152;28;88061;-79
2020/12/15 14:57:09;;;;;;;26.13;16.42;;;8.20;96.30;;;;;;4923316;28;87065;-79
2020/12/15 14:59:35;;;;;;;30.45;16.40;;;8.20;97.10;;;;;;4923768;28;87041;-78
2020/12/15 15:02:01;;;;;;;26.35;16.52;;;8.10;97.80;;;;;;4925389;28;87301;-79
2020/12/15 15:04:28;;;;;;;26.35;15.43;;;8.00;98.70;;;;;;4926788;28;87288;-78
2020/12/15 15:06:55;;;;;;;32.33;17.50;;;7.90;98.90;;;;;;4926465;28;86877;-78
2020/12/15 15:09:20;;;;;;;30.92;16.63;;;7.90;99.60;;;;;;4918728;28;86152;-79
2020/12/15 15:11:46;;;;;;;30.35;17.40;;;7.80;99.60;;;;;;4917622;28;87241;-79
2020/12/15 15:14:12;;;;;;;31.00;16.30;;;7.70;99.90;;;;;;4913893;28;87286;-78
2020/12/15 15:16:37;;;;;;;30.80;17.10;;;7.60;99.90;;;;;;4911127;28;87716;-79
2020/12/15 15:19:03;;;;;;;31.73;17.63;;;7.60;99.90;;;;;;4915187;28;87843;-78
2020/12/15 15:21:29;;;;;;;32.75;16.83;;;7.60;99.90;;;;;;4926870;28;87064;-79
2020/12/15 15:23:55;;;;;;;32.30;17.90;;;7.50;99.90;;;;;;4926990;28;86991;-78
2020/12/15 15:26:21;;;;;;;29.05;17.35;;;7.40;99.90;;;;;;4909102;28;86876;-79
2020/12/15 15:28:48;;;;;;;32.55;17.25;;;7.40;99.90;;;;;;4924048;28;86978;-79
2020/12/15 15:31:14;;;;;;;31.73;17.05;;;7.40;99.90;;;;;;4923575;28;87011;-79
2020/12/15 15:33:42;;;;;;;33.67;17.65;;;7.30;99.90;;;;;;4921441;28;86500;-78
2020/12/15 15:36:08;;;;;;;28.20;15.38;;;7.30;99.90;;;;;;4927418;28;86512;-78
2020/12/15 15:38:34;;;;;;;33.92;18.38;;;7.20;99.90;;;;;;4920250;28;87169;-78
2020/12/15 15:40:59;;;;;;;32.80;17.00;;;7.10;99.90;;;;;;4914989;28;88654;-79
2020/12/15 15:43:27;;;;;;;31.23;16.55;;;7.20;99.90;;;;;;4921498;28;88376;-77
2020/12/15 15:45:54;;;;;;;32.80;17.70;;;7.20;99.90;;;;;;4924211;28;86990;-79
2020/12/15 15:48:19;;;;;;;46.67;22.17;;;7.10;99.90;;;;;;4923594;28;87616;-79
2020/12/15 15:50:45;;;;;;;40.53;20.30;;;7.00;99.90;;;;;;4909156;28;90338;-79
2020/12/15 15:53:11;;;;;;;35.25;18.52;;;7.00;99.90;;;;;;4926518;28;87342;-77
2020/12/15 15:55:37;;;;;;;33.85;18.70;;;7.10;99.90;;;;;;4927046;28;86894;-79
2020/12/15 15:58:06;;;;;;;36.55;19.00;;;7.00;99.90;;;;;;4927916;28;86382;-77
2020/12/15 16:00:32;;;;;;;32.03;18.73;;;7.00;99.90;;;;;;4923716;28;87580;-79
2020/12/15 16:02:58;;;;;;;29.20;16.88;;;7.00;99.90;;;;;;4924903;28;86776;-77
2020/12/15 16:05:23;;;;;;;30.73;18.27;;;7.00;99.90;;;;;;4926066;28;87849;-77
2020/12/15 16:07:50;;;;;;;31.08;17.70;;;7.00;99.90;;;;;;4926694;28;87074;-78
2020/12/15 16:10:15;;;;;;;32.80;19.13;;;7.00;99.90;;;;;;4911642;28;90430;-79
2020/12/15 16:12:41;;;;;;;31.35;17.08;;;7.00;99.90;;;;;;4911176;28;86954;-78
2020/12/15 16:15:07;;;;;;;43.40;21.98;;;7.00;99.90;;;;;;4912456;28;87080;-79
2020/12/15 16:17:32;;;;;;;33.60;17.80;;;7.10;99.90;;;;;;4926384;28;86971;-77
2020/12/15 16:19:58;;;;;;;33.72;18.30;;;7.00;99.90;;;;;;4926143;28;88381;-78
2020/12/15 16:22:24;;;;;;;36.33;18.33;;;7.00;99.90;;;;;;4917502;28;86256;-79